createdAt,value
2022-10-04T00:01:09.260Z,100.00
2022-10-04T00:03:42.895Z,100.00
2022-10-04T00:06:17.469Z,100.00
2022-10-04T00:08:51.716Z,100.00
2022-10-04T00:11:26.743Z,100.00
2022-10-04T00:13:58.596Z,100.00
2022-10-04T00:16:31.324Z,100.00
2022-10-04T00:19:23.394Z,100.00
2022-10-04T00:22:12.683Z,100.00
2022-10-04T00:25:21.207Z,100.00
2022-10-04T00:28:25.313Z,100.00
2022-10-04T00:31:16.447Z,100.00
2022-10-04T00:33:45.759Z,100.00
2022-10-04T00:36:45.642Z,100.00
2022-10-04T00:39:33.948Z,100.00
2022-10-04T00:42:13.605Z,100.00
2022-10-04T00:44:50.467Z,100.00
2022-10-04T00:47:31.885Z,100.00
2022-10-04T00:50:06.951Z,100.00
2022-10-04T00:52:38.225Z,100.00
2022-10-04T00:55:10.597Z,100.00
2022-10-04T00:57:43.659Z,100.00
2022-10-04T01:00:16.304Z,100.00
2022-10-04T01:02:54.253Z,100.00
2022-10-04T01:05:26.614Z,100.00
2022-10-04T01:07:58.356Z,100.00
2022-10-04T01:10:29.887Z,100.00
2022-10-04T01:13:05.828Z,100.00
2022-10-04T01:15:42.901Z,100.00
2022-10-04T01:18:15.711Z,100.00
2022-10-04T01:20:53.967Z,100.00
2022-10-04T01:23:51.450Z,100.00
2022-10-04T01:26:40.918Z,100.00
2022-10-04T01:29:12.561Z,100.00
2022-10-04T01:31:43.332Z,100.00
2022-10-04T01:34:14.626Z,100.00
2022-10-04T01:36:42.907Z,100.00
2022-10-04T01:39:12.631Z,100.00
2022-10-04T01:41:52.377Z,100.00
2022-10-04T01:44:29.256Z,100.00
2022-10-04T01:47:00.645Z,100.00
2022-10-04T01:49:32.677Z,100.00
2022-10-04T01:52:04.459Z,100.00
2022-10-04T01:54:37.223Z,100.00
2022-10-04T01:57:12.439Z,100.00
2022-10-04T01:59:46.110Z,100.00
2022-10-04T02:02:25.538Z,100.00
2022-10-04T02:04:56.913Z,100.00
2022-10-04T02:07:28.371Z,100.00
2022-10-04T02:10:00.797Z,100.00
2022-10-04T02:12:31.485Z,100.00
2022-10-04T02:15:02.424Z,100.00
2022-10-04T02:17:32.965Z,100.00
2022-10-04T02:20:03.123Z,100.00
2022-10-04T02:22:31.786Z,100.00
2022-10-04T02:25:02.013Z,100.00
2022-10-04T02:27:31.448Z,100.00
2022-10-04T02:30:03.889Z,100.00
2022-10-04T02:32:51.293Z,100.00
2022-10-04T02:35:20.902Z,100.00
2022-10-04T02:37:52.666Z,100.00
2022-10-04T02:40:29.057Z,100.00
2022-10-04T02:43:01.542Z,100.00
2022-10-04T02:45:38.521Z,100.00
2022-10-04T02:48:19.554Z,100.00
2022-10-04T02:50:50.290Z,100.00
2022-10-04T02:53:22.954Z,100.00
2022-10-04T02:55:52.583Z,100.00
2022-10-04T02:58:24.628Z,100.00
2022-10-04T03:00:57.649Z,100.00
2022-10-04T03:03:28.800Z,100.00
2022-10-04T03:06:02.607Z,100.00
2022-10-04T03:08:33.170Z,100.00
2022-10-04T03:11:05.535Z,100.00
2022-10-04T03:13:34.609Z,100.00
2022-10-04T03:16:02.832Z,100.00
2022-10-04T03:18:32.243Z,100.00
2022-10-04T03:21:03.608Z,100.00
2022-10-04T03:23:33.484Z,100.00
2022-10-04T03:26:07.971Z,100.00
2022-10-04T03:28:38.658Z,100.00
2022-10-04T03:31:07.328Z,100.00
2022-10-04T03:33:35.550Z,100.00
2022-10-04T03:36:04.283Z,100.00
2022-10-04T03:38:35.800Z,100.00
2022-10-04T03:41:05.589Z,100.00
2022-10-04T03:43:38.452Z,100.00
2022-10-04T03:46:09.499Z,100.00
2022-10-04T03:48:40.842Z,100.00
2022-10-04T03:51:14.645Z,100.00
2022-10-04T03:53:46.490Z,100.00
2022-10-04T03:56:20.142Z,100.00
2022-10-04T03:58:50.634Z,100.00
2022-10-04T04:01:27.915Z,100.00
2022-10-04T04:04:02.325Z,100.00
2022-10-04T04:06:40.902Z,100.00
2022-10-04T04:09:10.244Z,100.00
2022-10-04T04:11:39.726Z,100.00
2022-10-04T04:14:13.866Z,100.00
2022-10-04T04:16:42.171Z,100.00
2022-10-04T04:19:14.517Z,100.00
2022-10-04T04:21:43.132Z,100.00
2022-10-04T04:24:23.164Z,100.00
2022-10-04T04:26:57.670Z,100.00
2022-10-04T04:29:32.913Z,100.00
2022-10-04T04:32:05.033Z,100.00
2022-10-04T04:34:35.618Z,100.00
2022-10-04T04:37:05.817Z,100.00
2022-10-04T04:39:41.141Z,100.00
2022-10-04T04:42:18.218Z,100.00
2022-10-04T04:44:51.698Z,100.00
2022-10-04T04:47:32.434Z,100.00
2022-10-04T04:50:06.330Z,100.00
2022-10-04T04:52:36.106Z,100.00
2022-10-04T04:55:05.468Z,100.00
2022-10-04T04:57:35.163Z,100.00
2022-10-04T05:00:03.818Z,100.00
2022-10-04T05:02:35.255Z,100.00
2022-10-04T05:05:22.138Z,100.00
2022-10-04T05:07:50.293Z,100.00
2022-10-04T05:10:32.313Z,100.00
2022-10-04T05:13:04.353Z,100.00
2022-10-04T05:15:35.826Z,100.00
2022-10-04T05:18:17.813Z,100.00
2022-10-04T05:20:50.757Z,100.00
2022-10-04T05:23:18.797Z,100.00
2022-10-04T05:25:47.107Z,100.00
2022-10-04T05:28:18.342Z,100.00
2022-10-04T05:31:01.638Z,100.00
2022-10-04T05:33:39.722Z,100.00
2022-10-04T05:36:42.825Z,100.00
2022-10-04T05:39:20.535Z,100.00
2022-10-04T05:41:55.166Z,99.78
2022-10-04T05:44:28.486Z,99.10
2022-10-04T05:46:58.692Z,98.55
2022-10-04T05:49:29.533Z,97.38
2022-10-04T05:52:01.094Z,95.52
2022-10-04T05:54:32.955Z,95.75
2022-10-04T05:57:19.295Z,94.44
2022-10-04T06:00:07.896Z,93.32
2022-10-04T06:02:54.560Z,93.13
2022-10-04T06:05:29.302Z,92.94
2022-10-04T06:08:02.990Z,91.23
2022-10-04T06:10:53.738Z,91.71
2022-10-04T06:13:39.860Z,92.61
2022-10-04T06:16:21.285Z,93.52
2022-10-04T06:19:09.637Z,93.64
2022-10-04T06:21:56.945Z,94.70
2022-10-04T06:24:28.614Z,94.53
2022-10-04T06:27:02.541Z,95.58
2022-10-04T06:29:34.977Z,94.75
2022-10-04T06:32:34.358Z,93.94
2022-10-04T06:35:34.038Z,94.89
2022-10-04T06:38:32.129Z,94.39
2022-10-04T06:41:24.638Z,93.92
2022-10-04T06:44:12.581Z,91.51
2022-10-04T06:46:48.089Z,90.17
2022-10-04T06:49:40.295Z,90.93
2022-10-04T06:52:35.325Z,90.58
2022-10-04T06:55:33.290Z,87.51
2022-10-04T06:58:25.486Z,86.52
2022-10-04T07:00:58.220Z,86.14
2022-10-04T07:03:32.170Z,87.00
2022-10-04T07:06:05.879Z,88.00
2022-10-04T07:08:39.921Z,83.97
2022-10-04T07:11:15.499Z,84.34
2022-10-04T07:13:52.405Z,83.04
2022-10-04T07:16:41.369Z,80.16
2022-10-04T07:19:24.998Z,81.25
2022-10-04T07:22:02.298Z,80.37
2022-10-04T07:24:43.152Z,76.59
2022-10-04T07:27:17.819Z,80.23
2022-10-04T07:29:46.842Z,78.30
2022-10-04T07:32:19.272Z,78.30
2022-10-04T07:34:53.849Z,78.04
2022-10-04T07:37:24.173Z,80.87
2022-10-04T07:39:58.343Z,80.49
2022-10-04T07:42:31.020Z,85.32
2022-10-04T07:45:12.018Z,83.38
2022-10-04T07:47:40.174Z,83.60
2022-10-04T07:50:29.450Z,80.48
2022-10-04T07:53:09.842Z,79.14
2022-10-04T07:55:46.921Z,78.61
2022-10-04T07:58:28.433Z,76.11
2022-10-04T08:01:00.029Z,77.34
2022-10-04T08:03:56.594Z,73.97
2022-10-04T08:06:34.880Z,75.42
2022-10-04T08:09:29.711Z,73.69
2022-10-04T08:12:06.573Z,71.79
2022-10-04T08:14:50.643Z,68.10
2022-10-04T08:17:29.107Z,67.23
2022-10-04T08:20:04.950Z,65.52
2022-10-04T08:22:51.326Z,63.38
2022-10-04T08:25:26.194Z,66.19
2022-10-04T08:28:22.146Z,64.46
2022-10-04T08:31:10.298Z,66.12
2022-10-04T08:33:58.430Z,61.58
2022-10-04T08:36:40.928Z,63.18
2022-10-04T08:39:23.426Z,59.99
2022-10-04T08:42:30.525Z,64.50
2022-10-04T08:45:48.165Z,63.38
2022-10-04T08:49:01.216Z,61.93
2022-10-04T08:52:05.377Z,62.01
2022-10-04T08:55:13.164Z,62.46
2022-10-04T08:58:06.035Z,59.51
2022-10-04T09:00:51.725Z,59.99
2022-10-04T09:03:47.587Z,55.81
2022-10-04T09:06:31.170Z,57.74
2022-10-04T09:09:46.951Z,53.72
2022-10-04T09:12:35.360Z,56.24
2022-10-04T09:15:31.479Z,57.10
2022-10-04T09:18:09.801Z,55.78
2022-10-04T09:20:51.933Z,51.69
2022-10-04T09:23:45.395Z,54.45
2022-10-04T09:26:23.244Z,53.21
2022-10-04T09:29:39.150Z,53.51
2022-10-04T09:32:55.826Z,49.97
2022-10-04T09:35:56.978Z,47.69
2022-10-04T09:39:28.878Z,47.82
2022-10-04T09:42:28.975Z,49.46
2022-10-04T09:45:27.565Z,50.21
2022-10-04T09:48:09.226Z,48.96
2022-10-04T09:51:01.042Z,48.54
2022-10-04T09:53:57.325Z,46.95
2022-10-04T09:56:50.756Z,50.38
2022-10-04T09:59:42.037Z,50.22
2022-10-04T10:02:47.958Z,49.70
2022-10-04T10:05:32.583Z,47.75
2022-10-04T10:08:12.259Z,44.60
2022-10-04T10:11:09.440Z,46.09
2022-10-04T10:14:04.945Z,49.89
2022-10-04T10:16:50.050Z,47.64
2022-10-04T10:19:47.733Z,49.17
2022-10-04T10:22:46.124Z,50.05
2022-10-04T10:25:28.822Z,50.46
2022-10-04T10:28:24.210Z,48.84
2022-10-04T10:31:09.371Z,52.90
2022-10-04T10:34:11.025Z,53.52
2022-10-04T10:36:53.771Z,49.51
2022-10-04T10:39:49.838Z,50.92
2022-10-04T10:42:57.901Z,48.34
2022-10-04T10:45:45.878Z,48.31
2022-10-04T10:48:19.003Z,50.74
2022-10-04T10:51:03.862Z,55.07
2022-10-04T10:54:17.122Z,56.10
2022-10-04T10:56:56.842Z,48.59
2022-10-04T11:00:11.876Z,49.25
2022-10-04T11:03:11.789Z,49.95
2022-10-04T11:06:25.231Z,45.71
2022-10-04T11:09:38.750Z,48.64
2022-10-04T11:12:42.141Z,46.72
2022-10-04T11:15:40.811Z,50.43
2022-10-04T11:18:48.675Z,43.68
2022-10-04T11:21:43.627Z,46.96
2022-10-04T11:24:45.082Z,47.50
2022-10-04T11:27:30.517Z,46.71
2022-10-04T11:30:23.563Z,47.92
2022-10-04T11:33:34.850Z,44.99
2022-10-04T11:36:29.397Z,43.94
2022-10-04T11:39:26.896Z,49.01
2022-10-04T11:41:57.408Z,47.90
2022-10-04T11:44:47.578Z,48.37
2022-10-04T11:47:29.963Z,47.49
2022-10-04T11:50:20.538Z,48.94
2022-10-04T11:53:26.336Z,44.11
2022-10-04T11:56:10.234Z,47.22
2022-10-04T11:58:54.394Z,49.89
2022-10-04T12:02:00.105Z,52.33
2022-10-04T12:05:01.350Z,51.22
2022-10-04T12:07:40.508Z,51.21
2022-10-04T12:10:23.105Z,52.16
2022-10-04T12:13:17.397Z,54.59
2022-10-04T12:16:03.268Z,51.38
2022-10-04T12:19:13.606Z,53.64
2022-10-04T12:21:52.566Z,49.45
2022-10-04T12:25:03.208Z,55.92
2022-10-04T12:28:16.071Z,51.52
2022-10-04T12:31:08.712Z,54.96
2022-10-04T12:33:44.733Z,57.57
2022-10-04T12:36:28.317Z,55.69
2022-10-04T12:39:12.492Z,52.92
2022-10-04T12:41:52.116Z,53.96
2022-10-04T12:44:36.074Z,54.44
2022-10-04T12:47:40.417Z,53.37
2022-10-04T12:50:18.813Z,56.32
2022-10-04T12:52:55.495Z,58.66
2022-10-04T12:55:42.755Z,57.84
2022-10-04T12:58:22.873Z,59.86
2022-10-04T13:00:57.791Z,56.89
2022-10-04T13:03:40.295Z,54.99
2022-10-04T13:06:21.751Z,53.45
2022-10-04T13:09:08.625Z,55.85
2022-10-04T13:11:56.324Z,51.27
2022-10-04T13:14:46.366Z,52.35
2022-10-04T13:17:34.735Z,47.88
2022-10-04T13:20:35.853Z,58.23
2022-10-04T13:23:08.932Z,56.32
2022-10-04T13:25:46.466Z,51.38
2022-10-04T13:28:24.984Z,59.79
2022-10-04T13:31:01.654Z,58.30
2022-10-04T13:33:43.556Z,60.34
2022-10-04T13:36:17.790Z,51.54
2022-10-04T13:39:07.495Z,61.10
2022-10-04T13:41:49.654Z,61.51
2022-10-04T13:44:27.832Z,61.79
2022-10-04T13:47:17.581Z,62.94
2022-10-04T13:50:04.177Z,61.75
2022-10-04T13:53:01.016Z,61.72
2022-10-04T13:55:54.386Z,66.45
2022-10-04T13:58:36.652Z,68.40
2022-10-04T14:01:34.219Z,66.40
2022-10-04T14:04:14.921Z,70.79
2022-10-04T14:07:31.916Z,69.84
2022-10-04T14:10:22.370Z,71.68
2022-10-04T14:13:34.163Z,67.88
2022-10-04T14:16:19.237Z,70.46
2022-10-04T14:19:21.514Z,70.38
2022-10-04T14:22:23.149Z,71.03
2022-10-04T14:25:21.573Z,70.87
2022-10-04T14:28:16.865Z,68.05
2022-10-04T14:31:04.445Z,67.47
2022-10-04T14:33:57.898Z,68.47
2022-10-04T14:36:54.274Z,69.70
2022-10-04T14:39:51.462Z,69.18
2022-10-04T14:42:45.722Z,70.76
2022-10-04T14:45:32.971Z,69.48
2022-10-04T14:48:29.614Z,67.73
2022-10-04T14:51:15.970Z,68.92
2022-10-04T14:53:56.030Z,68.42
2022-10-04T14:56:46.919Z,68.45
2022-10-04T14:59:36.655Z,68.49
2022-10-04T15:02:36.417Z,67.02
2022-10-04T15:05:28.712Z,72.21
2022-10-04T15:08:13.526Z,70.58
2022-10-04T15:10:51.105Z,71.19
2022-10-04T15:13:27.164Z,70.74
2022-10-04T15:16:14.264Z,69.75
2022-10-04T15:18:53.809Z,71.95
2022-10-04T15:21:36.483Z,71.22
2022-10-04T15:24:28.650Z,69.83
2022-10-04T15:27:29.300Z,70.04
2022-10-04T15:30:10.907Z,70.63
2022-10-04T15:32:46.677Z,71.31
2022-10-04T15:35:25.542Z,70.68
2022-10-04T15:38:00.738Z,70.95
2022-10-04T15:40:55.598Z,71.52
2022-10-04T15:43:30.954Z,71.33
2022-10-04T15:46:40.545Z,70.72
2022-10-04T15:49:37.922Z,71.04
2022-10-04T15:52:16.195Z,70.69
2022-10-04T15:55:04.264Z,71.10
2022-10-04T15:57:51.479Z,71.30
2022-10-04T16:00:23.262Z,71.69
2022-10-04T16:03:14.060Z,71.21
2022-10-04T16:05:47.950Z,70.44
2022-10-04T16:08:30.625Z,70.84
2022-10-04T16:11:10.915Z,71.89
2022-10-04T16:14:03.934Z,72.34
2022-10-04T16:16:58.352Z,72.44
2022-10-04T16:19:48.351Z,72.14
2022-10-04T16:22:20.145Z,73.84
2022-10-04T16:24:51.462Z,74.78
2022-10-04T16:27:51.719Z,75.00
2022-10-04T16:30:29.015Z,75.30
2022-10-04T16:33:13.657Z,75.62
2022-10-04T16:35:46.662Z,76.22
2022-10-04T16:38:26.352Z,76.70
2022-10-04T16:41:11.428Z,77.25
2022-10-04T16:43:52.830Z,77.41
2022-10-04T16:46:30.804Z,77.14
2022-10-04T16:49:02.258Z,77.31
2022-10-04T16:52:05.439Z,77.37
2022-10-04T16:54:48.639Z,77.98
2022-10-04T16:57:23.013Z,77.98
2022-10-04T16:59:54.443Z,78.08
2022-10-04T17:02:38.005Z,78.35
2022-10-04T17:05:22.857Z,79.12
2022-10-04T17:08:17.642Z,78.48
2022-10-04T17:11:10.045Z,78.52
2022-10-04T17:13:56.370Z,79.76
2022-10-04T17:16:31.986Z,80.00
2022-10-04T17:19:26.037Z,80.01
2022-10-04T17:22:06.907Z,79.81
2022-10-04T17:24:43.373Z,78.78
2022-10-04T17:27:27.758Z,77.93
2022-10-04T17:30:16.847Z,77.20
2022-10-04T17:32:55.298Z,77.38
2022-10-04T17:36:14.418Z,76.89
2022-10-04T17:38:49.255Z,78.62
2022-10-04T17:41:22.334Z,79.57
2022-10-04T17:44:23.718Z,80.38
2022-10-04T17:47:01.810Z,80.25
2022-10-04T17:49:57.212Z,79.73
2022-10-04T17:52:50.481Z,80.41
2022-10-04T17:55:28.789Z,80.72
2022-10-04T17:58:04.220Z,81.16
2022-10-04T18:03:39.947Z,82.41
2022-10-04T18:06:18.801Z,83.34
2022-10-04T18:08:53.424Z,82.71
2022-10-04T18:11:29.733Z,83.50
2022-10-04T18:14:02.549Z,83.99
2022-10-04T18:16:32.912Z,84.49
2022-10-04T18:19:37.209Z,84.43
2022-10-04T18:22:15.153Z,84.80
2022-10-04T18:24:44.865Z,85.30
2022-10-04T18:27:19.718Z,85.27
2022-10-04T18:30:00.555Z,85.37
2022-10-04T18:32:36.279Z,85.35
2022-10-04T18:35:22.665Z,85.81
2022-10-04T18:37:51.053Z,85.69
2022-10-04T18:40:21.499Z,86.36
2022-10-04T18:42:57.170Z,86.81
2022-10-04T18:45:28.447Z,86.30
2022-10-04T18:47:57.928Z,86.71
2022-10-04T18:50:35.322Z,86.79
2022-10-04T18:53:28.105Z,86.36
2022-10-04T18:56:01.099Z,86.21
2022-10-04T18:59:15.255Z,86.39
2022-10-04T19:02:06.704Z,85.90
2022-10-04T19:05:02.141Z,86.76
2022-10-04T19:07:41.264Z,86.94
2022-10-04T19:10:23.835Z,87.26
2022-10-04T19:13:10.931Z,87.92
2022-10-04T19:15:59.767Z,87.97
2022-10-04T19:18:41.767Z,87.92
2022-10-04T19:21:20.612Z,88.06
2022-10-04T19:24:03.315Z,87.79
2022-10-04T19:26:36.014Z,87.57
2022-10-04T19:29:14.128Z,88.42
2022-10-04T19:31:50.420Z,88.73
2022-10-04T19:34:23.935Z,88.73
2022-10-04T19:37:00.482Z,88.96
2022-10-04T19:39:47.453Z,88.82
2022-10-04T19:42:19.267Z,88.48
2022-10-04T19:44:59.960Z,88.85
2022-10-04T19:47:40.152Z,89.86
2022-10-04T19:50:17.873Z,88.48
2022-10-04T19:52:53.409Z,87.82
2022-10-04T19:55:27.617Z,88.71
2022-10-04T19:58:03.919Z,89.35
2022-10-04T20:00:33.178Z,89.75
2022-10-04T20:03:01.106Z,89.66
2022-10-04T20:05:29.122Z,89.74
2022-10-04T20:08:01.611Z,90.18
2022-10-04T20:10:34.677Z,90.17
2022-10-04T20:13:21.383Z,89.53
2022-10-04T20:15:51.445Z,90.29
2022-10-04T20:18:59.971Z,90.52
2022-10-04T20:21:33.321Z,90.97
2022-10-04T20:24:01.757Z,90.99
2022-10-04T20:26:55.994Z,90.98
2022-10-04T20:30:06.599Z,92.39
2022-10-04T20:32:57.395Z,93.07
2022-10-04T20:36:01.599Z,93.57
2022-10-04T20:38:59.520Z,93.28
2022-10-04T20:42:20.466Z,93.07
2022-10-04T20:44:59.958Z,93.17
2022-10-04T20:47:47.853Z,93.12
2022-10-04T20:50:26.741Z,92.93
2022-10-04T20:52:57.231Z,92.44
2022-10-04T20:55:28.413Z,92.24
2022-10-04T20:58:01.193Z,93.47
2022-10-04T21:00:33.909Z,94.64
2022-10-04T21:03:10.128Z,94.18
2022-10-04T21:05:38.872Z,93.29
2022-10-04T21:08:21.427Z,92.42
2022-10-04T21:11:20.044Z,91.99
2022-10-04T21:14:00.807Z,91.81
2022-10-04T21:16:41.032Z,91.40
2022-10-04T21:19:31.655Z,90.59
2022-10-04T21:22:00.564Z,90.80
2022-10-04T21:24:34.937Z,90.68
2022-10-04T21:27:03.658Z,90.76
2022-10-04T21:29:33.294Z,91.56
2022-10-04T21:32:01.366Z,91.13
2022-10-04T21:34:51.890Z,90.98
2022-10-04T21:37:17.885Z,90.80
2022-10-04T21:39:46.002Z,90.04
2022-10-04T21:42:13.966Z,90.36
2022-10-04T21:44:43.322Z,90.81
2022-10-04T21:47:11.277Z,90.86
2022-10-04T21:49:39.180Z,91.02
2022-10-04T21:52:07.686Z,91.42
2022-10-04T21:54:35.885Z,91.62
2022-10-04T21:57:03.833Z,91.20
2022-10-04T21:59:31.769Z,91.92
2022-10-04T22:02:01.146Z,93.97
2022-10-04T22:04:29.150Z,93.73
2022-10-04T22:06:57.065Z,93.73
2022-10-04T22:09:24.986Z,93.54
2022-10-04T22:11:52.900Z,94.01
2022-10-04T22:14:20.815Z,94.08
2022-10-04T22:16:49.136Z,94.21
2022-10-04T22:19:19.001Z,94.53
2022-10-04T22:21:46.925Z,94.43
2022-10-04T22:24:18.731Z,94.71
2022-10-04T22:26:47.341Z,95.24
2022-10-04T22:29:16.803Z,94.82
2022-10-04T22:31:47.837Z,95.71
2022-10-04T22:34:19.360Z,95.56
2022-10-04T22:36:49.163Z,96.26
2022-10-04T22:39:19.738Z,97.03
2022-10-04T22:41:49.453Z,97.63
2022-10-04T22:44:19.775Z,99.34
2022-10-04T22:46:52.621Z,100.00
2022-10-04T22:49:25.142Z,100.00
2022-10-04T22:51:54.949Z,99.63
2022-10-04T22:54:25.429Z,99.26
2022-10-04T22:56:54.357Z,98.76
2022-10-04T22:59:28.212Z,98.51
2022-10-04T23:01:56.247Z,98.30
2022-10-04T23:04:26.870Z,97.84
2022-10-04T23:06:54.983Z,97.65
2022-10-04T23:09:22.898Z,96.62
2022-10-04T23:11:50.843Z,97.59
2022-10-04T23:14:18.761Z,97.38
2022-10-04T23:16:47.480Z,96.79
2022-10-04T23:19:18.871Z,97.86
2022-10-04T23:21:49.883Z,96.89
2022-10-04T23:24:19.788Z,96.50
2022-10-04T23:26:50.050Z,96.25
2022-10-04T23:29:20.060Z,96.92
2022-10-04T23:31:49.824Z,97.09
2022-10-04T23:34:21.004Z,96.30
2022-10-04T23:36:50.386Z,96.06
2022-10-04T23:39:24.759Z,96.23
2022-10-04T23:41:54.061Z,95.51
2022-10-04T23:44:23.851Z,95.20
2022-10-04T23:46:52.497Z,95.86
2022-10-04T23:49:21.461Z,95.56
2022-10-04T23:51:56.568Z,95.32
2022-10-04T23:54:24.643Z,94.93
2022-10-04T23:56:52.763Z,94.76
2022-10-04T23:59:23.406Z,94.94
